sensor_id;sensor_type;location;lat;lon;timestamp;P1;durP1;ratioP1;P2;durP2;ratioP2
40983;SDS011;26714;51.332;12.406;2024-02-28T00:03:12;30.20;;;11.10;;
40983;SDS011;26714;51.332;12.406;2024-02-28T00:06:19;24.30;;;11.07;;
40983;SDS011;26714;51.332;12.406;2024-02-28T00:09:32;22.83;;;11.20;;
40983;SDS011;26714;51.332;12.406;2024-02-28T00:12:18;26.40;;;11.63;;
40983;SDS011;26714;51.332;12.406;2024-02-28T00:15:12;24.13;;;11.02;;
40983;SDS011;26714;51.332;12.406;2024-02-28T00:18:14;26.95;;;10.85;;
40983;SDS011;26714;51.332;12.406;2024-02-28T00:21:17;26.65;;;11.40;;
40983;SDS011;26714;51.332;12.406;2024-02-28T00:24:30;25.70;;;11.15;;
40983;SDS011;26714;51.332;12.406;2024-02-28T00:27:57;32.08;;;13.13;;
40983;SDS011;26714;51.332;12.406;2024-02-28T00:30:44;28.80;;;13.13;;
40983;SDS011;26714;51.332;12.406;2024-02-28T00:33:32;25.40;;;11.50;;
40983;SDS011;26714;51.332;12.406;2024-02-28T00:36:31;21.52;;;10.60;;
40983;SDS011;26714;51.332;12.406;2024-02-28T00:39:31;23.40;;;10.52;;
40983;SDS011;26714;51.332;12.406;2024-02-28T00:42:16;26.77;;;11.00;;
40983;SDS011;26714;51.332;12.406;2024-02-28T00:44:48;23.98;;;10.95;;
40983;SDS011;26714;51.332;12.406;2024-02-28T00:47:45;25.42;;;11.70;;
40983;SDS011;26714;51.332;12.406;2024-02-28T00:50:31;24.20;;;10.50;;
40983;SDS011;26714;51.332;12.406;2024-02-28T00:53:10;24.77;;;10.90;;
40983;SDS011;26714;51.332;12.406;2024-02-28T00:56:21;26.15;;;10.75;;
40983;SDS011;26714;51.332;12.406;2024-02-28T00:59:24;20.02;;;9.25;;
40983;SDS011;26714;51.332;12.406;2024-02-28T01:02:40;20.60;;;9.27;;
40983;SDS011;26714;51.332;12.406;2024-02-28T01:05:40;20.42;;;9.40;;
40983;SDS011;26714;51.332;12.406;2024-02-28T01:09:02;21.48;;;9.68;;
40983;SDS011;26714;51.332;12.406;2024-02-28T01:11:45;20.55;;;9.23;;
40983;SDS011;26714;51.332;12.406;2024-02-28T01:14:29;19.73;;;9.07;;
40983;SDS011;26714;51.332;12.406;2024-02-28T01:17:42;18.70;;;8.73;;
40983;SDS011;26714;51.332;12.406;2024-02-28T01:20:27;17.40;;;9.35;;
40983;SDS011;26714;51.332;12.406;2024-02-28T01:23:07;18.27;;;8.82;;
40983;SDS011;26714;51.332;12.406;2024-02-28T01:26:09;19.10;;;9.75;;
40983;SDS011;26714;51.332;12.406;2024-02-28T01:29:10;21.63;;;10.15;;
40983;SDS011;26714;51.332;12.406;2024-02-28T01:31:48;20.05;;;9.13;;
40983;SDS011;26714;51.332;12.406;2024-02-28T01:34:28;18.50;;;9.50;;
40983;SDS011;26714;51.332;12.406;2024-02-28T01:37:13;21.95;;;10.48;;
40983;SDS011;26714;51.332;12.406;2024-02-28T01:39:59;20.00;;;9.43;;
40983;SDS011;26714;51.332;12.406;2024-02-28T01:42:36;22.00;;;10.80;;
40983;SDS011;26714;51.332;12.406;2024-02-28T01:45:25;25.77;;;10.95;;
40983;SDS011;26714;51.332;12.406;2024-02-28T01:48:22;20.60;;;10.32;;
40983;SDS011;26714;51.332;12.406;2024-02-28T01:51:02;21.70;;;10.30;;
40983;SDS011;26714;51.332;12.406;2024-02-28T01:53:37;22.67;;;10.13;;
40983;SDS011;26714;51.332;12.406;2024-02-28T01:56:08;27.77;;;9.98;;
40983;SDS011;26714;51.332;12.406;2024-02-28T01:59:04;18.35;;;9.55;;
40983;SDS011;26714;51.332;12.406;2024-02-28T02:01:37;18.90;;;9.68;;
40983;SDS011;26714;51.332;12.406;2024-02-28T02:04:42;16.80;;;9.05;;
40983;SDS011;26714;51.332;12.406;2024-02-28T02:07:36;16.42;;;7.80;;
40983;SDS011;26714;51.332;12.406;2024-02-28T02:10:21;17.23;;;8.73;;
40983;SDS011;26714;51.332;12.406;2024-02-28T02:13:06;19.63;;;9.65;;
40983;SDS011;26714;51.332;12.406;2024-02-28T02:16:32;18.98;;;9.70;;
40983;SDS011;26714;51.332;12.406;2024-02-28T02:19:13;19.33;;;9.15;;
40983;SDS011;26714;51.332;12.406;2024-02-28T02:22:24;19.92;;;10.02;;
40983;SDS011;26714;51.332;12.406;2024-02-28T02:25:20;19.88;;;9.75;;
40983;SDS011;26714;51.332;12.406;2024-02-28T02:35:38;31.05;;;12.70;;
40983;SDS011;26714;51.332;12.406;2024-02-28T02:39:06;27.05;;;12.30;;
40983;SDS011;26714;51.332;12.406;2024-02-28T02:42:24;29.30;;;13.10;;
40983;SDS011;26714;51.332;12.406;2024-02-28T02:45:59;25.92;;;12.00;;
40983;SDS011;26714;51.332;12.406;2024-02-28T02:49:44;25.40;;;12.75;;
40983;SDS011;26714;51.332;12.406;2024-02-28T02:57:05;25.52;;;12.15;;
40983;SDS011;26714;51.332;12.406;2024-02-28T03:00:26;27.13;;;12.45;;
40983;SDS011;26714;51.332;12.406;2024-02-28T03:04:02;29.17;;;12.93;;
40983;SDS011;26714;51.332;12.406;2024-02-28T03:11:04;25.38;;;11.32;;
40983;SDS011;26714;51.332;12.406;2024-02-28T03:14:59;30.33;;;12.95;;
40983;SDS011;26714;51.332;12.406;2024-02-28T03:17:47;24.15;;;12.07;;
40983;SDS011;26714;51.332;12.406;2024-02-28T03:23:29;24.80;;;11.38;;
40983;SDS011;26714;51.332;12.406;2024-02-28T03:26:42;25.05;;;12.20;;
40983;SDS011;26714;51.332;12.406;2024-02-28T03:29:48;26.10;;;12.48;;
40983;SDS011;26714;51.332;12.406;2024-02-28T03:33:24;23.27;;;12.45;;
40983;SDS011;26714;51.332;12.406;2024-02-28T03:36:22;25.50;;;12.18;;
40983;SDS011;26714;51.332;12.406;2024-02-28T03:39:19;29.33;;;12.95;;
40983;SDS011;26714;51.332;12.406;2024-02-28T03:42:14;20.55;;;11.70;;
40983;SDS011;26714;51.332;12.406;2024-02-28T03:45:08;26.05;;;13.57;;
40983;SDS011;26714;51.332;12.406;2024-02-28T03:52:03;24.63;;;12.48;;
40983;SDS011;26714;51.332;12.406;2024-02-28T03:54:58;27.45;;;13.73;;
40983;SDS011;26714;51.332;12.406;2024-02-28T03:58:04;28.15;;;14.30;;
40983;SDS011;26714;51.332;12.406;2024-02-28T04:01:04;31.65;;;14.15;;
40983;SDS011;26714;51.332;12.406;2024-02-28T04:04:28;28.05;;;14.65;;
40983;SDS011;26714;51.332;12.406;2024-02-28T04:08:29;25.98;;;12.77;;
40983;SDS011;26714;51.332;12.406;2024-02-28T04:19:24;23.38;;;11.18;;
40983;SDS011;26714;51.332;12.406;2024-02-28T04:22:12;24.42;;;11.85;;
40983;SDS011;26714;51.332;12.406;2024-02-28T04:28:33;23.42;;;11.98;;
40983;SDS011;26714;51.332;12.406;2024-02-28T04:31:51;26.08;;;11.88;;
40983;SDS011;26714;51.332;12.406;2024-02-28T04:39:31;23.55;;;11.93;;
40983;SDS011;26714;51.332;12.406;2024-02-28T04:51:38;23.88;;;12.90;;
40983;SDS011;26714;51.332;12.406;2024-02-28T04:54:54;26.50;;;13.90;;
40983;SDS011;26714;51.332;12.406;2024-02-28T04:57:42;26.58;;;13.27;;
40983;SDS011;26714;51.332;12.406;2024-02-28T05:00:54;23.23;;;12.93;;
40983;SDS011;26714;51.332;12.406;2024-02-28T05:03:51;23.40;;;12.95;;
40983;SDS011;26714;51.332;12.406;2024-02-28T05:10:28;28.95;;;15.32;;
40983;SDS011;26714;51.332;12.406;2024-02-28T05:14:14;32.13;;;13.48;;
40983;SDS011;26714;51.332;12.406;2024-02-28T05:20:39;29.42;;;14.75;;
40983;SDS011;26714;51.332;12.406;2024-02-28T05:23:53;30.58;;;14.32;;
40983;SDS011;26714;51.332;12.406;2024-02-28T05:30:57;30.42;;;14.55;;
40983;SDS011;26714;51.332;12.406;2024-02-28T05:34:13;26.10;;;14.02;;
40983;SDS011;26714;51.332;12.406;2024-02-28T05:45:20;23.60;;;12.57;;
40983;SDS011;26714;51.332;12.406;2024-02-28T05:49:29;24.50;;;13.27;;
40983;SDS011;26714;51.332;12.406;2024-02-28T05:53:15;24.45;;;12.93;;
40983;SDS011;26714;51.332;12.406;2024-02-28T05:56:23;23.58;;;11.40;;
40983;SDS011;26714;51.332;12.406;2024-02-28T05:59:31;26.60;;;12.85;;
40983;SDS011;26714;51.332;12.406;2024-02-28T06:10:22;22.70;;;10.98;;
40983;SDS011;26714;51.332;12.406;2024-02-28T06:21:40;22.90;;;10.65;;
40983;SDS011;26714;51.332;12.406;2024-02-28T06:25:43;22.20;;;11.18;;
40983;SDS011;26714;51.332;12.406;2024-02-28T06:29:34;28.05;;;12.00;;
40983;SDS011;26714;51.332;12.406;2024-02-28T07:11:25;25.40;;;12.00;;
40983;SDS011;26714;51.332;12.406;2024-02-28T07:14:07;24.83;;;12.45;;
40983;SDS011;26714;51.332;12.406;2024-02-28T07:16:37;24.65;;;13.00;;
40983;SDS011;26714;51.332;12.406;2024-02-28T07:19:26;26.08;;;12.65;;
40983;SDS011;26714;51.332;12.406;2024-02-28T07:22:23;23.70;;;12.32;;
40983;SDS011;26714;51.332;12.406;2024-02-28T07:25:02;22.55;;;12.52;;
40983;SDS011;26714;51.332;12.406;2024-02-28T07:27:44;22.70;;;12.23;;
40983;SDS011;26714;51.332;12.406;2024-02-28T07:30:22;26.70;;;13.93;;
40983;SDS011;26714;51.332;12.406;2024-02-28T07:33:00;32.70;;;16.65;;
40983;SDS011;26714;51.332;12.406;2024-02-28T07:35:47;32.03;;;16.25;;
40983;SDS011;26714;51.332;12.406;2024-02-28T07:38:43;35.92;;;17.02;;
40983;SDS011;26714;51.332;12.406;2024-02-28T07:41:45;35.88;;;18.50;;
40983;SDS011;26714;51.332;12.406;2024-02-28T07:44:22;38.33;;;18.92;;
40983;SDS011;26714;51.332;12.406;2024-02-28T07:46:57;34.70;;;18.45;;
40983;SDS011;26714;51.332;12.406;2024-02-28T07:49:40;41.53;;;20.80;;
40983;SDS011;26714;51.332;12.406;2024-02-28T07:52:41;44.83;;;21.27;;
40983;SDS011;26714;51.332;12.406;2024-02-28T07:55:09;49.83;;;22.23;;
40983;SDS011;26714;51.332;12.406;2024-02-28T07:57:50;43.42;;;21.80;;
40983;SDS011;26714;51.332;12.406;2024-02-28T08:00:21;41.10;;;21.10;;
40983;SDS011;26714;51.332;12.406;2024-02-28T08:02:58;49.75;;;22.20;;
40983;SDS011;26714;51.332;12.406;2024-02-28T08:05:40;47.05;;;21.90;;
40983;SDS011;26714;51.332;12.406;2024-02-28T08:08:24;45.42;;;21.33;;
40983;SDS011;26714;51.332;12.406;2024-02-28T08:11:14;50.53;;;22.77;;
40983;SDS011;26714;51.332;12.406;2024-02-28T08:13:51;46.92;;;22.60;;
40983;SDS011;26714;51.332;12.406;2024-02-28T08:16:29;43.03;;;21.92;;
40983;SDS011;26714;51.332;12.406;2024-02-28T08:19:13;48.00;;;21.20;;
40983;SDS011;26714;51.332;12.406;2024-02-28T08:22:12;43.45;;;19.95;;
40983;SDS011;26714;51.332;12.406;2024-02-28T08:25:09;41.03;;;20.67;;
40983;SDS011;26714;51.332;12.406;2024-02-28T08:28:09;43.90;;;21.42;;
40983;SDS011;26714;51.332;12.406;2024-02-28T08:30:53;46.00;;;20.98;;
40983;SDS011;26714;51.332;12.406;2024-02-28T08:33:52;45.97;;;21.90;;
40983;SDS011;26714;51.332;12.406;2024-02-28T08:39:36;40.05;;;18.70;;
40983;SDS011;26714;51.332;12.406;2024-02-28T08:42:24;36.22;;;19.35;;
40983;SDS011;26714;51.332;12.406;2024-02-28T08:45:16;36.72;;;20.02;;
40983;SDS011;26714;51.332;12.406;2024-02-28T08:48:14;38.80;;;18.85;;
40983;SDS011;26714;51.332;12.406;2024-02-28T08:51:12;35.63;;;18.88;;
40983;SDS011;26714;51.332;12.406;2024-02-28T08:54:12;34.92;;;18.75;;
40983;SDS011;26714;51.332;12.406;2024-02-28T08:56:47;31.83;;;17.25;;
40983;SDS011;26714;51.332;12.406;2024-02-28T08:59:26;38.35;;;19.48;;
40983;SDS011;26714;51.332;12.406;2024-02-28T09:02:11;33.33;;;18.13;;
40983;SDS011;26714;51.332;12.406;2024-02-28T09:04:48;30.48;;;17.50;;
40983;SDS011;26714;51.332;12.406;2024-02-28T09:07:24;33.60;;;17.60;;
40983;SDS011;26714;51.332;12.406;2024-02-28T09:12:41;31.13;;;17.45;;
40983;SDS011;26714;51.332;12.406;2024-02-28T09:21:55;25.67;;;14.98;;
40983;SDS011;26714;51.332;12.406;2024-02-28T09:24:43;32.38;;;16.75;;
40983;SDS011;26714;51.332;12.406;2024-02-28T09:27:33;29.30;;;17.58;;
40983;SDS011;26714;51.332;12.406;2024-02-28T09:30:13;36.00;;;18.02;;
40983;SDS011;26714;51.332;12.406;2024-02-28T09:33:55;28.02;;;16.50;;
40983;SDS011;26714;51.332;12.406;2024-02-28T09:39:58;27.58;;;16.63;;
40983;SDS011;26714;51.332;12.406;2024-02-28T09:42:41;29.05;;;16.48;;
40983;SDS011;26714;51.332;12.406;2024-02-28T09:45:20;29.80;;;16.25;;
40983;SDS011;26714;51.332;12.406;2024-02-28T09:48:03;29.17;;;16.33;;
40983;SDS011;26714;51.332;12.406;2024-02-28T09:50:44;29.58;;;16.60;;
40983;SDS011;26714;51.332;12.406;2024-02-28T09:53:18;30.50;;;18.23;;
40983;SDS011;26714;51.332;12.406;2024-02-28T09:55:55;28.80;;;16.85;;
40983;SDS011;26714;51.332;12.406;2024-02-28T09:58:26;30.08;;;17.52;;
40983;SDS011;26714;51.332;12.406;2024-02-28T10:00:56;33.08;;;17.63;;
40983;SDS011;26714;51.332;12.406;2024-02-28T10:03:50;33.38;;;17.92;;
40983;SDS011;26714;51.332;12.406;2024-02-28T10:06:25;30.42;;;17.77;;
40983;SDS011;26714;51.332;12.406;2024-02-28T10:09:00;27.60;;;17.20;;
40983;SDS011;26714;51.332;12.406;2024-02-28T10:11:28;30.83;;;18.27;;
40983;SDS011;26714;51.332;12.406;2024-02-28T10:13:57;34.35;;;18.08;;
40983;SDS011;26714;51.332;12.406;2024-02-28T10:16:33;31.50;;;17.52;;
40983;SDS011;26714;51.332;12.406;2024-02-28T10:19:06;30.20;;;17.05;;
40983;SDS011;26714;51.332;12.406;2024-02-28T10:21:43;30.52;;;16.98;;
40983;SDS011;26714;51.332;12.406;2024-02-28T10:24:34;33.15;;;17.80;;
40983;SDS011;26714;51.332;12.406;2024-02-28T10:27:08;27.25;;;16.40;;
40983;SDS011;26714;51.332;12.406;2024-02-28T10:29:44;29.95;;;16.25;;
40983;SDS011;26714;51.332;12.406;2024-02-28T10:32:47;27.90;;;15.70;;
40983;SDS011;26714;51.332;12.406;2024-02-28T10:35:22;28.20;;;15.75;;
40983;SDS011;26714;51.332;12.406;2024-02-28T10:38:05;28.88;;;16.98;;
40983;SDS011;26714;51.332;12.406;2024-02-28T10:44:43;25.50;;;14.50;;
40983;SDS011;26714;51.332;12.406;2024-02-28T10:48:18;25.38;;;15.20;;
40983;SDS011;26714;51.332;12.406;2024-02-28T10:51:38;24.92;;;14.55;;
40983;SDS011;26714;51.332;12.406;2024-02-28T11:03:16;20.48;;;12.60;;
40983;SDS011;26714;51.332;12.406;2024-02-28T11:15:00;25.15;;;14.55;;
40983;SDS011;26714;51.332;12.406;2024-02-28T11:17:35;22.60;;;13.73;;
40983;SDS011;26714;51.332;12.406;2024-02-28T11:23:06;22.85;;;12.85;;
40983;SDS011;26714;51.332;12.406;2024-02-28T11:25:43;23.10;;;13.48;;
40983;SDS011;26714;51.332;12.406;2024-02-28T11:28:25;22.20;;;12.40;;
40983;SDS011;26714;51.332;12.406;2024-02-28T11:31:00;25.63;;;12.88;;
40983;SDS011;26714;51.332;12.406;2024-02-28T11:34:06;19.95;;;11.35;;
40983;SDS011;26714;51.332;12.406;2024-02-28T11:36:47;19.40;;;12.05;;
40983;SDS011;26714;51.332;12.406;2024-02-28T11:39:37;21.00;;;11.30;;
40983;SDS011;26714;51.332;12.406;2024-02-28T11:42:18;20.75;;;11.77;;
40983;SDS011;26714;51.332;12.406;2024-02-28T11:44:54;18.55;;;11.25;;
40983;SDS011;26714;51.332;12.406;2024-02-28T11:47:29;25.20;;;11.75;;
40983;SDS011;26714;51.332;12.406;2024-02-28T11:50:02;25.27;;;11.35;;
40983;SDS011;26714;51.332;12.406;2024-02-28T11:52:42;23.92;;;12.15;;
40983;SDS011;26714;51.332;12.406;2024-02-28T11:55:16;24.55;;;12.15;;
40983;SDS011;26714;51.332;12.406;2024-02-28T11:57:45;21.30;;;12.50;;
40983;SDS011;26714;51.332;12.406;2024-02-28T12:00:19;22.02;;;11.75;;
40983;SDS011;26714;51.332;12.406;2024-02-28T12:02:54;19.95;;;11.00;;
40983;SDS011;26714;51.332;12.406;2024-02-28T12:05:52;18.75;;;11.25;;
40983;SDS011;26714;51.332;12.406;2024-02-28T12:08:19;21.27;;;11.30;;
40983;SDS011;26714;51.332;12.406;2024-02-28T12:10:47;20.20;;;11.00;;
40983;SDS011;26714;51.332;12.406;2024-02-28T12:13:22;18.48;;;10.50;;
40983;SDS011;26714;51.332;12.406;2024-02-28T12:15:53;19.10;;;10.82;;
40983;SDS011;26714;51.332;12.406;2024-02-28T12:18:28;18.02;;;10.38;;
40983;SDS011;26714;51.332;12.406;2024-02-28T12:21:08;19.63;;;9.85;;
40983;SDS011;26714;51.332;12.406;2024-02-28T12:23:39;18.75;;;10.13;;
40983;SDS011;26714;51.332;12.406;2024-02-28T12:26:06;18.33;;;10.00;;
40983;SDS011;26714;51.332;12.406;2024-02-28T12:28:48;15.88;;;9.75;;
40983;SDS011;26714;51.332;12.406;2024-02-28T12:31:20;15.18;;;9.77;;
40983;SDS011;26714;51.332;12.406;2024-02-28T12:33:48;16.85;;;10.27;;
40983;SDS011;26714;51.332;12.406;2024-02-28T12:36:19;15.85;;;10.00;;
40983;SDS011;26714;51.332;12.406;2024-02-28T12:38:50;16.52;;;9.95;;
40983;SDS011;26714;51.332;12.406;2024-02-28T12:41:17;16.15;;;9.82;;
40983;SDS011;26714;51.332;12.406;2024-02-28T12:43:48;14.73;;;9.00;;
40983;SDS011;26714;51.332;12.406;2024-02-28T12:46:14;15.45;;;9.32;;
40983;SDS011;26714;51.332;12.406;2024-02-28T12:48:47;16.05;;;10.07;;
40983;SDS011;26714;51.332;12.406;2024-02-28T12:51:44;15.13;;;10.02;;
40983;SDS011;26714;51.332;12.406;2024-02-28T12:54:40;14.93;;;9.73;;
40983;SDS011;26714;51.332;12.406;2024-02-28T12:57:10;15.95;;;9.18;;
40983;SDS011;26714;51.332;12.406;2024-02-28T12:59:44;14.32;;;9.05;;
40983;SDS011;26714;51.332;12.406;2024-02-28T13:02:18;17.10;;;9.60;;
40983;SDS011;26714;51.332;12.406;2024-02-28T13:05:02;14.10;;;8.98;;
40983;SDS011;26714;51.332;12.406;2024-02-28T13:07:36;22.50;;;11.00;;
40983;SDS011;26714;51.332;12.406;2024-02-28T13:12:48;15.93;;;9.65;;
40983;SDS011;26714;51.332;12.406;2024-02-28T13:15:19;27.70;;;10.20;;
40983;SDS011;26714;51.332;12.406;2024-02-28T13:17:57;18.00;;;9.40;;
40983;SDS011;26714;51.332;12.406;2024-02-28T13:20:37;16.75;;;8.70;;
40983;SDS011;26714;51.332;12.406;2024-02-28T13:23:09;15.45;;;8.50;;
40983;SDS011;26714;51.332;12.406;2024-02-28T13:25:49;16.85;;;9.18;;
40983;SDS011;26714;51.332;12.406;2024-02-28T13:28:30;15.60;;;9.18;;
40983;SDS011;26714;51.332;12.406;2024-02-28T13:31:09;15.30;;;8.80;;
40983;SDS011;26714;51.332;12.406;2024-02-28T13:33:47;14.48;;;9.02;;
40983;SDS011;26714;51.332;12.406;2024-02-28T13:36:39;14.95;;;8.40;;
40983;SDS011;26714;51.332;12.406;2024-02-28T13:39:15;13.45;;;7.78;;
40983;SDS011;26714;51.332;12.406;2024-02-28T13:41:48;14.35;;;7.95;;
40983;SDS011;26714;51.332;12.406;2024-02-28T13:44:25;14.50;;;7.07;;
40983;SDS011;26714;51.332;12.406;2024-02-28T13:46:55;13.48;;;8.23;;
40983;SDS011;26714;51.332;12.406;2024-02-28T13:49:28;17.75;;;8.82;;
40983;SDS011;26714;51.332;12.406;2024-02-28T13:52:07;13.70;;;8.27;;
40983;SDS011;26714;51.332;12.406;2024-02-28T13:54:44;13.40;;;8.32;;
40983;SDS011;26714;51.332;12.406;2024-02-28T13:57:44;14.63;;;8.18;;
40983;SDS011;26714;51.332;12.406;2024-02-28T14:00:32;12.20;;;7.50;;
40983;SDS011;26714;51.332;12.406;2024-02-28T14:03:19;15.60;;;6.65;;
40983;SDS011;26714;51.332;12.406;2024-02-28T14:06:09;12.73;;;6.95;;
40983;SDS011;26714;51.332;12.406;2024-02-28T14:09:06;12.38;;;7.13;;
40983;SDS011;26714;51.332;12.406;2024-02-28T14:11:48;14.25;;;6.95;;
40983;SDS011;26714;51.332;12.406;2024-02-28T14:14:17;11.32;;;7.15;;
40983;SDS011;26714;51.332;12.406;2024-02-28T14:16:49;11.50;;;6.22;;
40983;SDS011;26714;51.332;12.406;2024-02-28T14:19:52;14.18;;;7.15;;
40983;SDS011;26714;51.332;12.406;2024-02-28T14:23:04;11.40;;;6.60;;
40983;SDS011;26714;51.332;12.406;2024-02-28T14:26:04;10.82;;;6.32;;
40983;SDS011;26714;51.332;12.406;2024-02-28T14:28:54;11.38;;;7.00;;
40983;SDS011;26714;51.332;12.406;2024-02-28T14:31:55;13.05;;;7.13;;
40983;SDS011;26714;51.332;12.406;2024-02-28T14:35:20;11.80;;;7.18;;
40983;SDS011;26714;51.332;12.406;2024-02-28T14:38:08;12.80;;;8.00;;
40983;SDS011;26714;51.332;12.406;2024-02-28T14:50:10;13.55;;;7.18;;
40983;SDS011;26714;51.332;12.406;2024-02-28T14:53:08;13.25;;;7.43;;
40983;SDS011;26714;51.332;12.406;2024-02-28T14:56:21;13.55;;;8.02;;
40983;SDS011;26714;51.332;12.406;2024-02-28T14:59:19;12.02;;;6.90;;
40983;SDS011;26714;51.332;12.406;2024-02-28T15:02:31;12.45;;;7.25;;
40983;SDS011;26714;51.332;12.406;2024-02-28T15:05:24;15.30;;;8.23;;
40983;SDS011;26714;51.332;12.406;2024-02-28T15:08:52;14.02;;;7.43;;
40983;SDS011;26714;51.332;12.406;2024-02-28T15:11:52;12.07;;;7.90;;
40983;SDS011;26714;51.332;12.406;2024-02-28T15:14:32;13.40;;;7.25;;
40983;SDS011;26714;51.332;12.406;2024-02-28T15:17:16;12.23;;;7.68;;
40983;SDS011;26714;51.332;12.406;2024-02-28T15:19:45;17.40;;;8.02;;
40983;SDS011;26714;51.332;12.406;2024-02-28T15:23:02;12.50;;;8.23;;
40983;SDS011;26714;51.332;12.406;2024-02-28T15:26:25;13.63;;;8.05;;
40983;SDS011;26714;51.332;12.406;2024-02-28T15:29:27;17.73;;;7.97;;
40983;SDS011;26714;51.332;12.406;2024-02-28T15:35:48;12.13;;;7.15;;
40983;SDS011;26714;51.332;12.406;2024-02-28T15:39:32;12.35;;;6.97;;
40983;SDS011;26714;51.332;12.406;2024-02-28T15:42:38;13.95;;;7.30;;
40983;SDS011;26714;51.332;12.406;2024-02-28T15:45:35;14.90;;;7.20;;
40983;SDS011;26714;51.332;12.406;2024-02-28T15:48:28;18.38;;;8.20;;
40983;SDS011;26714;51.332;12.406;2024-02-28T15:51:16;18.45;;;8.00;;
40983;SDS011;26714;51.332;12.406;2024-02-28T15:54:07;14.98;;;8.15;;
40983;SDS011;26714;51.332;12.406;2024-02-28T15:56:47;17.23;;;8.77;;
40983;SDS011;26714;51.332;12.406;2024-02-28T15:59:37;17.40;;;8.88;;
40983;SDS011;26714;51.332;12.406;2024-02-28T16:02:32;15.30;;;8.05;;
40983;SDS011;26714;51.332;12.406;2024-02-28T16:05:15;14.82;;;8.77;;
40983;SDS011;26714;51.332;12.406;2024-02-28T16:08:02;15.38;;;8.70;;
40983;SDS011;26714;51.332;12.406;2024-02-28T16:10:53;16.48;;;8.55;;
40983;SDS011;26714;51.332;12.406;2024-02-28T16:13:42;19.35;;;9.13;;
40983;SDS011;26714;51.332;12.406;2024-02-28T16:16:32;17.35;;;9.30;;
40983;SDS011;26714;51.332;12.406;2024-02-28T16:19:29;18.63;;;9.20;;
40983;SDS011;26714;51.332;12.406;2024-02-28T16:22:20;16.42;;;8.15;;
40983;SDS011;26714;51.332;12.406;2024-02-28T16:25:01;15.95;;;8.63;;
40983;SDS011;26714;51.332;12.406;2024-02-28T16:27:34;14.40;;;8.40;;
40983;SDS011;26714;51.332;12.406;2024-02-28T16:30:12;19.50;;;10.02;;
40983;SDS011;26714;51.332;12.406;2024-02-28T16:32:41;14.93;;;8.25;;
40983;SDS011;26714;51.332;12.406;2024-02-28T16:35:20;23.48;;;11.10;;
40983;SDS011;26714;51.332;12.406;2024-02-28T16:38:06;18.80;;;10.00;;
40983;SDS011;26714;51.332;12.406;2024-02-28T16:40:59;19.35;;;9.63;;
40983;SDS011;26714;51.332;12.406;2024-02-28T16:43:30;16.80;;;8.35;;
40983;SDS011;26714;51.332;12.406;2024-02-28T16:46:09;19.00;;;9.27;;
40983;SDS011;26714;51.332;12.406;2024-02-28T16:48:45;15.95;;;8.25;;
40983;SDS011;26714;51.332;12.406;2024-02-28T16:51:19;21.10;;;9.60;;
40983;SDS011;26714;51.332;12.406;2024-02-28T16:53:52;18.73;;;9.20;;
40983;SDS011;26714;51.332;12.406;2024-02-28T16:56:25;16.48;;;8.82;;
40983;SDS011;26714;51.332;12.406;2024-02-28T16:59:06;16.45;;;8.35;;
40983;SDS011;26714;51.332;12.406;2024-02-28T17:01:41;19.48;;;10.18;;
40983;SDS011;26714;51.332;12.406;2024-02-28T17:04:21;24.38;;;12.32;;
40983;SDS011;26714;51.332;12.406;2024-02-28T17:06:51;18.90;;;9.35;;
40983;SDS011;26714;51.332;12.406;2024-02-28T17:09:25;16.98;;;9.55;;
40983;SDS011;26714;51.332;12.406;2024-02-28T17:12:09;19.50;;;9.65;;
40983;SDS011;26714;51.332;12.406;2024-02-28T17:14:41;17.75;;;9.02;;
40983;SDS011;26714;51.332;12.406;2024-02-28T17:17:25;17.52;;;9.13;;
40983;SDS011;26714;51.332;12.406;2024-02-28T17:20:00;15.50;;;8.50;;
40983;SDS011;26714;51.332;12.406;2024-02-28T17:22:48;20.17;;;9.80;;
40983;SDS011;26714;51.332;12.406;2024-02-28T17:25:41;18.30;;;9.80;;
40983;SDS011;26714;51.332;12.406;2024-02-28T17:28:10;25.15;;;11.57;;
40983;SDS011;26714;51.332;12.406;2024-02-28T17:30:42;25.25;;;11.30;;
40983;SDS011;26714;51.332;12.406;2024-02-28T17:33:10;21.23;;;9.82;;
40983;SDS011;26714;51.332;12.406;2024-02-28T17:35:40;20.27;;;10.18;;
40983;SDS011;26714;51.332;12.406;2024-02-28T17:38:07;22.63;;;9.82;;
40983;SDS011;26714;51.332;12.406;2024-02-28T17:40:55;22.17;;;10.20;;
40983;SDS011;26714;51.332;12.406;2024-02-28T17:43:22;25.85;;;10.02;;
40983;SDS011;26714;51.332;12.406;2024-02-28T17:46:12;18.73;;;9.13;;
40983;SDS011;26714;51.332;12.406;2024-02-28T17:48:46;28.90;;;12.27;;
40983;SDS011;26714;51.332;12.406;2024-02-28T17:51:37;26.23;;;11.73;;
40983;SDS011;26714;51.332;12.406;2024-02-28T17:54:26;20.10;;;10.90;;
40983;SDS011;26714;51.332;12.406;2024-02-28T17:57:02;16.90;;;9.30;;
40983;SDS011;26714;51.332;12.406;2024-02-28T17:59:45;23.90;;;10.45;;
40983;SDS011;26714;51.332;12.406;2024-02-28T18:02:15;18.33;;;10.05;;
40983;SDS011;26714;51.332;12.406;2024-02-28T18:04:43;26.70;;;11.27;;
40983;SDS011;26714;51.332;12.406;2024-02-28T18:07:13;29.15;;;12.55;;
40983;SDS011;26714;51.332;12.406;2024-02-28T18:09:40;26.63;;;10.40;;
40983;SDS011;26714;51.332;12.406;2024-02-28T18:12:18;26.02;;;12.27;;
40983;SDS011;26714;51.332;12.406;2024-02-28T18:14:57;24.75;;;11.52;;
40983;SDS011;26714;51.332;12.406;2024-02-28T18:17:51;26.20;;;11.23;;
40983;SDS011;26714;51.332;12.406;2024-02-28T18:20:45;26.08;;;11.77;;
40983;SDS011;26714;51.332;12.406;2024-02-28T18:23:16;28.38;;;11.57;;
40983;SDS011;26714;51.332;12.406;2024-02-28T18:25:46;30.08;;;11.88;;
40983;SDS011;26714;51.332;12.406;2024-02-28T18:28:21;27.30;;;12.23;;
40983;SDS011;26714;51.332;12.406;2024-02-28T18:31:03;22.92;;;12.35;;
40983;SDS011;26714;51.332;12.406;2024-02-28T18:33:39;26.83;;;13.35;;
40983;SDS011;26714;51.332;12.406;2024-02-28T18:36:17;27.90;;;13.38;;
40983;SDS011;26714;51.332;12.406;2024-02-28T18:38:51;31.48;;;15.77;;
40983;SDS011;26714;51.332;12.406;2024-02-28T18:41:41;34.80;;;15.75;;
40983;SDS011;26714;51.332;12.406;2024-02-28T18:44:28;32.80;;;16.48;;
40983;SDS011;26714;51.332;12.406;2024-02-28T18:47:21;32.30;;;16.10;;
40983;SDS011;26714;51.332;12.406;2024-02-28T18:50:10;36.10;;;16.50;;
40983;SDS011;26714;51.332;12.406;2024-02-28T18:56:08;32.08;;;15.35;;
40983;SDS011;26714;51.332;12.406;2024-02-28T18:58:49;34.58;;;16.13;;
40983;SDS011;26714;51.332;12.406;2024-02-28T19:01:39;30.70;;;15.35;;
40983;SDS011;26714;51.332;12.406;2024-02-28T19:04:43;30.83;;;15.90;;
40983;SDS011;26714;51.332;12.406;2024-02-28T19:07:30;45.08;;;22.02;;
40983;SDS011;26714;51.332;12.406;2024-02-28T19:11:15;35.85;;;16.65;;
40983;SDS011;26714;51.332;12.406;2024-02-28T19:14:54;35.08;;;16.52;;
40983;SDS011;26714;51.332;12.406;2024-02-28T19:17:52;35.40;;;16.08;;
40983;SDS011;26714;51.332;12.406;2024-02-28T19:21:00;31.65;;;15.98;;
40983;SDS011;26714;51.332;12.406;2024-02-28T19:24:06;34.55;;;16.85;;
40983;SDS011;26714;51.332;12.406;2024-02-28T19:27:15;32.30;;;15.82;;